sensor_id;sensor_type;location;lat;lon;timestamp;pressure;altitude;pressure_sealevel;temperature;humidity
78073;BME280;67281;48.770;11.440;2023-06-10T00:01:43;96902.69;;;24.00;46.53
78073;BME280;67281;48.770;11.440;2023-06-10T00:04:15;96892.78;;;23.93;46.58
78073;BME280;67281;48.770;11.440;2023-06-10T00:06:43;96895.91;;;23.97;46.88
78073;BME280;67281;48.770;11.440;2023-06-10T00:09:10;96889.34;;;24.06;46.49
78073;BME280;67281;48.770;11.440;2023-06-10T00:11:37;96894.69;;;24.06;46.05
78073;BME280;67281;48.770;11.440;2023-06-10T00:14:04;96890.53;;;23.97;46.55
78073;BME280;67281;48.770;11.440;2023-06-10T00:16:31;96883.09;;;23.92;46.69
78073;BME280;67281;48.770;11.440;2023-06-10T00:19:03;96886.22;;;23.96;46.96
78073;BME280;67281;48.770;11.440;2023-06-10T00:21:32;96892.97;;;23.85;47.01
78073;BME280;67281;48.770;11.440;2023-06-10T00:24:04;96890.44;;;23.77;46.73
78073;BME280;67281;48.770;11.440;2023-06-10T00:26:36;96886.34;;;23.75;46.81
78073;BME280;67281;48.770;11.440;2023-06-10T00:29:03;96888.59;;;23.78;47.37
78073;BME280;67281;48.770;11.440;2023-06-10T00:31:30;96888.22;;;23.81;46.51
78073;BME280;67281;48.770;11.440;2023-06-10T00:33:57;96892.94;;;23.79;46.72
78073;BME280;67281;48.770;11.440;2023-06-10T00:36:25;96887.19;;;23.82;47.28
78073;BME280;67281;48.770;11.440;2023-06-10T00:38:52;96882.63;;;23.69;47.27
78073;BME280;67281;48.770;11.440;2023-06-10T00:41:19;96884.50;;;23.75;47.21
78073;BME280;67281;48.770;11.440;2023-06-10T00:43:46;96886.56;;;23.73;46.94
78073;BME280;67281;48.770;11.440;2023-06-10T00:46:13;96889.22;;;23.73;47.65
78073;BME280;67281;48.770;11.440;2023-06-10T00:48:40;96880.97;;;23.68;47.42
78073;BME280;67281;48.770;11.440;2023-06-10T00:51:08;96883.22;;;23.65;47.81
78073;BME280;67281;48.770;11.440;2023-06-10T00:53:41;96878.25;;;23.62;47.35
78073;BME280;67281;48.770;11.440;2023-06-10T00:56:09;96885.91;;;23.65;47.51
78073;BME280;67281;48.770;11.440;2023-06-10T00:58:36;96877.91;;;23.71;47.34
78073;BME280;67281;48.770;11.440;2023-06-10T01:01:03;96880.78;;;23.70;47.36
78073;BME280;67281;48.770;11.440;2023-06-10T01:03:33;96877.06;;;23.71;47.32
78073;BME280;67281;48.770;11.440;2023-06-10T01:06:14;96887.13;;;23.62;47.25
78073;BME280;67281;48.770;11.440;2023-06-10T01:09:04;96876.06;;;23.78;47.65
78073;BME280;67281;48.770;11.440;2023-06-10T01:12:05;96881.56;;;23.64;47.94
78073;BME280;67281;48.770;11.440;2023-06-10T01:14:36;96882.81;;;23.68;47.31
78073;BME280;67281;48.770;11.440;2023-06-10T01:17:06;96887.13;;;23.62;48.15
78073;BME280;67281;48.770;11.440;2023-06-10T01:19:35;96882.91;;;23.53;48.10
78073;BME280;67281;48.770;11.440;2023-06-10T01:22:03;96883.22;;;23.65;47.65
78073;BME280;67281;48.770;11.440;2023-06-10T01:24:31;96891.13;;;23.51;48.01
78073;BME280;67281;48.770;11.440;2023-06-10T01:27:01;96881.94;;;23.54;48.23
78073;BME280;67281;48.770;11.440;2023-06-10T01:29:37;96876.91;;;23.44;47.74
78073;BME280;67281;48.770;11.440;2023-06-10T01:32:27;96879.19;;;23.47;48.39
78073;BME280;67281;48.770;11.440;2023-06-10T01:34:56;96882.09;;;23.52;47.64
78073;BME280;67281;48.770;11.440;2023-06-10T01:37:24;96887.84;;;23.49;48.23
78073;BME280;67281;48.770;11.440;2023-06-10T01:39:57;96883.31;;;23.50;47.78
78073;BME280;67281;48.770;11.440;2023-06-10T01:42:25;96878.78;;;23.50;47.69
78073;BME280;67281;48.770;11.440;2023-06-10T01:44:53;96883.72;;;23.47;47.62
78073;BME280;67281;48.770;11.440;2023-06-10T01:47:19;96883.91;;;23.45;48.53
78073;BME280;67281;48.770;11.440;2023-06-10T01:49:47;96882.00;;;23.39;48.44
78073;BME280;67281;48.770;11.440;2023-06-10T01:52:14;96891.88;;;23.39;48.33
78073;BME280;67281;48.770;11.440;2023-06-10T01:54:41;96889.75;;;23.27;48.71
78073;BME280;67281;48.770;11.440;2023-06-10T01:57:08;96882.84;;;23.40;48.17
78073;BME280;67281;48.770;11.440;2023-06-10T01:59:35;96890.53;;;23.21;48.64
78073;BME280;67281;48.770;11.440;2023-06-10T02:02:03;96892.56;;;23.19;49.02
78073;BME280;67281;48.770;11.440;2023-06-10T02:04:30;96893.00;;;23.23;48.96
78073;BME280;67281;48.770;11.440;2023-06-10T02:06:57;96896.09;;;23.20;48.86
78073;BME280;67281;48.770;11.440;2023-06-10T02:09:25;96893.78;;;23.45;47.95
78073;BME280;67281;48.770;11.440;2023-06-10T02:11:51;96890.63;;;23.35;48.69
78073;BME280;67281;48.770;11.440;2023-06-10T02:14:18;96893.50;;;23.33;48.67
78073;BME280;67281;48.770;11.440;2023-06-10T02:16:45;96893.66;;;23.25;48.63
78073;BME280;67281;48.770;11.440;2023-06-10T02:19:13;96892.75;;;23.46;48.24
78073;BME280;67281;48.770;11.440;2023-06-10T02:21:40;96894.31;;;23.62;47.82
78073;BME280;67281;48.770;11.440;2023-06-10T02:24:07;96899.06;;;23.66;47.49
78073;BME280;67281;48.770;11.440;2023-06-10T02:26:34;96900.88;;;23.59;47.88
78073;BME280;67281;48.770;11.440;2023-06-10T02:29:01;96904.25;;;23.40;48.52
78073;BME280;67281;48.770;11.440;2023-06-10T02:31:28;96897.03;;;23.40;48.59
78073;BME280;67281;48.770;11.440;2023-06-10T02:33:55;96888.22;;;23.46;47.90
78073;BME280;67281;48.770;11.440;2023-06-10T02:36:23;96891.69;;;23.40;48.31
78073;BME280;67281;48.770;11.440;2023-06-10T02:38:50;96900.59;;;23.19;48.62
78073;BME280;67281;48.770;11.440;2023-06-10T02:41:17;96895.59;;;23.10;49.41
78073;BME280;67281;48.770;11.440;2023-06-10T02:43:44;96902.97;;;23.01;49.59
78073;BME280;67281;48.770;11.440;2023-06-10T02:46:11;96901.13;;;23.02;49.66
78073;BME280;67281;48.770;11.440;2023-06-10T02:48:42;96910.94;;;22.94;49.59
78073;BME280;67281;48.770;11.440;2023-06-10T02:51:10;96908.31;;;22.80;49.79
78073;BME280;67281;48.770;11.440;2023-06-10T02:53:37;96903.03;;;22.86;49.56
78073;BME280;67281;48.770;11.440;2023-06-10T02:56:04;96907.63;;;22.92;49.69
78073;BME280;67281;48.770;11.440;2023-06-10T02:58:31;96907.44;;;22.94;49.63
78073;BME280;67281;48.770;11.440;2023-06-10T03:00:58;96902.28;;;22.92;49.90
78073;BME280;67281;48.770;11.440;2023-06-10T03:03:24;96902.66;;;22.89;49.64
78073;BME280;67281;48.770;11.440;2023-06-10T03:05:52;96900.50;;;23.06;48.62
78073;BME280;67281;48.770;11.440;2023-06-10T03:08:19;96902.28;;;23.27;48.51
78073;BME280;67281;48.770;11.440;2023-06-10T03:10:46;96907.41;;;23.22;49.13
78073;BME280;67281;48.770;11.440;2023-06-10T03:13:12;96900.34;;;23.14;49.38
78073;BME280;67281;48.770;11.440;2023-06-10T03:15:41;96903.66;;;23.16;49.31
78073;BME280;67281;48.770;11.440;2023-06-10T03:18:07;96898.44;;;23.02;48.94
78073;BME280;67281;48.770;11.440;2023-06-10T03:20:34;96906.47;;;23.08;48.84
78073;BME280;67281;48.770;11.440;2023-06-10T03:23:06;96910.81;;;23.37;48.77
78073;BME280;67281;48.770;11.440;2023-06-10T03:25:33;96910.44;;;23.47;47.99
78073;BME280;67281;48.770;11.440;2023-06-10T03:28:00;96918.28;;;23.48;47.77
78073;BME280;67281;48.770;11.440;2023-06-10T03:30:27;96908.56;;;23.13;48.99
78073;BME280;67281;48.770;11.440;2023-06-10T03:32:54;96917.53;;;22.99;49.83
78073;BME280;67281;48.770;11.440;2023-06-10T03:35:21;96917.88;;;22.89;49.97
78073;BME280;67281;48.770;11.440;2023-06-10T03:37:49;96913.59;;;22.94;49.55
78073;BME280;67281;48.770;11.440;2023-06-10T03:40:15;96918.16;;;23.01;49.31
78073;BME280;67281;48.770;11.440;2023-06-10T03:42:42;96916.84;;;23.18;48.73
78073;BME280;67281;48.770;11.440;2023-06-10T03:45:10;96916.59;;;23.13;49.12
78073;BME280;67281;48.770;11.440;2023-06-10T03:47:39;96911.16;;;23.27;48.97
78073;BME280;67281;48.770;11.440;2023-06-10T03:50:07;96918.19;;;23.35;48.51
78073;BME280;67281;48.770;11.440;2023-06-10T03:52:35;96915.56;;;23.42;48.03
78073;BME280;67281;48.770;11.440;2023-06-10T03:55:03;96919.06;;;23.42;48.36
78073;BME280;67281;48.770;11.440;2023-06-10T03:57:30;96920.28;;;23.40;48.19
78073;BME280;67281;48.770;11.440;2023-06-10T03:59:58;96922.75;;;23.41;48.59
78073;BME280;67281;48.770;11.440;2023-06-10T04:02:24;96926.03;;;23.37;48.51
78073;BME280;67281;48.770;11.440;2023-06-10T04:04:52;96927.03;;;23.08;48.88
78073;BME280;67281;48.770;11.440;2023-06-10T04:07:18;96937.66;;;22.94;49.35
78073;BME280;67281;48.770;11.440;2023-06-10T04:09:48;96930.72;;;23.07;48.90
78073;BME280;67281;48.770;11.440;2023-06-10T04:12:14;96932.69;;;22.91;49.55
78073;BME280;67281;48.770;11.440;2023-06-10T04:14:42;96933.31;;;22.72;50.03
78073;BME280;67281;48.770;11.440;2023-06-10T04:17:09;96931.91;;;22.76;50.19
78073;BME280;67281;48.770;11.440;2023-06-10T04:19:36;96930.66;;;22.93;49.55
78073;BME280;67281;48.770;11.440;2023-06-10T04:22:04;96928.94;;;23.14;48.64
78073;BME280;67281;48.770;11.440;2023-06-10T04:24:31;96930.72;;;23.07;48.93
78073;BME280;67281;48.770;11.440;2023-06-10T04:26:58;96935.22;;;23.27;48.80
78073;BME280;67281;48.770;11.440;2023-06-10T04:29:25;96930.09;;;23.33;50.97
78073;BME280;67281;48.770;11.440;2023-06-10T04:31:52;96936.03;;;23.28;50.10
78073;BME280;67281;48.770;11.440;2023-06-10T04:34:19;96933.75;;;23.25;49.92
78073;BME280;67281;48.770;11.440;2023-06-10T04:36:46;96934.97;;;23.22;50.18
78073;BME280;67281;48.770;11.440;2023-06-10T04:39:13;96933.31;;;23.21;49.71
78073;BME280;67281;48.770;11.440;2023-06-10T04:41:40;96932.63;;;23.13;50.22
78073;BME280;67281;48.770;11.440;2023-06-10T04:44:07;96942.94;;;23.16;50.47
78073;BME280;67281;48.770;11.440;2023-06-10T04:46:34;96951.34;;;23.13;50.11
78073;BME280;67281;48.770;11.440;2023-06-10T04:49:01;96946.63;;;23.15;50.47
78073;BME280;67281;48.770;11.440;2023-06-10T04:51:28;96948.47;;;23.14;50.32
78073;BME280;67281;48.770;11.440;2023-06-10T04:53:55;96944.53;;;23.10;50.85
78073;BME280;67281;48.770;11.440;2023-06-10T04:56:21;96956.69;;;23.13;50.92
78073;BME280;67281;48.770;11.440;2023-06-10T04:58:48;96954.00;;;23.13;50.77
78073;BME280;67281;48.770;11.440;2023-06-10T05:01:15;96951.34;;;23.13;50.87
78073;BME280;67281;48.770;11.440;2023-06-10T05:03:42;96956.69;;;23.13;50.86
78073;BME280;67281;48.770;11.440;2023-06-10T05:06:09;96955.88;;;23.12;51.33
78073;BME280;67281;48.770;11.440;2023-06-10T05:08:36;96956.06;;;23.11;50.85
78073;BME280;67281;48.770;11.440;2023-06-10T05:11:06;96952.38;;;23.12;50.63
78073;BME280;67281;48.770;11.440;2023-06-10T05:13:33;96957.72;;;23.12;51.18
78073;BME280;67281;48.770;11.440;2023-06-10T05:15:59;96955.41;;;23.09;51.65
78073;BME280;67281;48.770;11.440;2023-06-10T05:18:26;96956.44;;;23.08;51.77
78073;BME280;67281;48.770;11.440;2023-06-10T05:20:53;96964.47;;;23.08;51.87
78073;BME280;67281;48.770;11.440;2023-06-10T05:23:20;96958.09;;;23.09;51.69
78073;BME280;67281;48.770;11.440;2023-06-10T05:25:47;96951.91;;;23.08;51.66
78073;BME280;67281;48.770;11.440;2023-06-10T05:28:15;96948.63;;;23.06;51.49
78073;BME280;67281;48.770;11.440;2023-06-10T05:30:41;96955.16;;;23.04;52.01
78073;BME280;67281;48.770;11.440;2023-06-10T05:33:08;96956.81;;;23.05;51.99
78073;BME280;67281;48.770;11.440;2023-06-10T05:35:35;96965.88;;;23.04;52.16
78073;BME280;67281;48.770;11.440;2023-06-10T05:38:02;96957.25;;;23.08;51.86
78073;BME280;67281;48.770;11.440;2023-06-10T05:40:29;96964.72;;;23.13;51.11
78073;BME280;67281;48.770;11.440;2023-06-10T05:42:56;96967.63;;;23.18;51.31
78073;BME280;67281;48.770;11.440;2023-06-10T05:45:23;96963.69;;;23.14;51.08
78073;BME280;67281;48.770;11.440;2023-06-10T05:47:50;96958.34;;;23.14;51.73
78073;BME280;67281;48.770;11.440;2023-06-10T05:50:17;96963.09;;;23.18;51.30
78073;BME280;67281;48.770;11.440;2023-06-10T05:52:44;96964.56;;;23.21;51.35
78073;BME280;67281;48.770;11.440;2023-06-10T05:55:11;96966.84;;;23.24;51.10
78073;BME280;67281;48.770;11.440;2023-06-10T05:57:38;96961.50;;;23.24;51.20
78073;BME280;67281;48.770;11.440;2023-06-10T06:00:05;96970.81;;;23.28;51.52
78073;BME280;67281;48.770;11.440;2023-06-10T06:02:32;96966.84;;;23.24;51.35
78073;BME280;67281;48.770;11.440;2023-06-10T06:04:59;96961.13;;;23.27;51.69
78073;BME280;67281;48.770;11.440;2023-06-10T06:07:26;96966.84;;;23.24;51.63
78073;BME280;67281;48.770;11.440;2023-06-10T06:09:53;96964.19;;;23.24;51.04
78073;BME280;67281;48.770;11.440;2023-06-10T06:12:20;96962.97;;;23.26;51.31
78073;BME280;67281;48.770;11.440;2023-06-10T06:14:46;96958.06;;;23.30;50.77
78073;BME280;67281;48.770;11.440;2023-06-10T06:17:15;96954.75;;;23.28;51.43
78073;BME280;67281;48.770;11.440;2023-06-10T06:19:46;96963.56;;;23.22;51.95
78073;BME280;67281;48.770;11.440;2023-06-10T06:22:16;96961.91;;;23.21;51.63
78073;BME280;67281;48.770;11.440;2023-06-10T06:24:47;96962.91;;;23.20;51.75
78073;BME280;67281;48.770;11.440;2023-06-10T06:27:18;96957.75;;;23.18;51.67
78073;BME280;67281;48.770;11.440;2023-06-10T06:29:45;96963.34;;;23.23;51.78
78073;BME280;67281;48.770;11.440;2023-06-10T06:32:12;96960.50;;;23.25;51.41
78073;BME280;67281;48.770;11.440;2023-06-10T06:34:39;96958.06;;;23.30;51.21
78073;BME280;67281;48.770;11.440;2023-06-10T06:37:06;96958.06;;;23.30;51.24
78073;BME280;67281;48.770;11.440;2023-06-10T06:39:32;96959.13;;;23.36;51.21
78073;BME280;67281;48.770;11.440;2023-06-10T06:41:59;96960.97;;;23.35;51.63
78073;BME280;67281;48.770;11.440;2023-06-10T06:44:26;96967.34;;;23.34;51.80
78073;BME280;67281;48.770;11.440;2023-06-10T06:46:53;96963.03;;;23.33;51.78
78073;BME280;67281;48.770;11.440;2023-06-10T06:49:20;96965.69;;;23.33;52.00
78073;BME280;67281;48.770;11.440;2023-06-10T06:51:47;96967.75;;;23.31;51.92
78073;BME280;67281;48.770;11.440;2023-06-10T06:54:14;96969.38;;;23.32;51.62
78073;BME280;67281;48.770;11.440;2023-06-10T06:56:40;96966.97;;;23.37;51.92
78073;BME280;67281;48.770;11.440;2023-06-10T06:59:07;96963.91;;;23.40;51.11
78073;BME280;67281;48.770;11.440;2023-06-10T07:01:34;96969.25;;;23.40;51.37
78073;BME280;67281;48.770;11.440;2023-06-10T07:04:01;96971.53;;;23.43;51.58
78073;BME280;67281;48.770;11.440;2023-06-10T07:06:28;96974.41;;;23.42;51.38
78073;BME280;67281;48.770;11.440;2023-06-10T07:08:55;96964.72;;;23.41;51.10
78073;BME280;67281;48.770;11.440;2023-06-10T07:11:21;96963.50;;;23.43;51.10
78073;BME280;67281;48.770;11.440;2023-06-10T07:13:48;96974.00;;;23.45;51.05
78073;BME280;67281;48.770;11.440;2023-06-10T07:16:15;96966.81;;;23.45;51.18
78073;BME280;67281;48.770;11.440;2023-06-10T07:18:42;96965.16;;;23.44;50.89
78073;BME280;67281;48.770;11.440;2023-06-10T07:21:09;96963.56;;;23.50;51.36
78073;BME280;67281;48.770;11.440;2023-06-10T07:23:35;96966.88;;;23.52;51.12
78073;BME280;67281;48.770;11.440;2023-06-10T07:26:02;96963.16;;;23.53;51.37
78073;BME280;67281;48.770;11.440;2023-06-10T07:28:29;96966.94;;;23.58;50.99
78073;BME280;67281;48.770;11.440;2023-06-10T07:30:56;96964.06;;;23.60;51.01
78073;BME280;67281;48.770;11.440;2023-06-10T07:33:23;96964.06;;;23.60;50.59
78073;BME280;67281;48.770;11.440;2023-06-10T07:35:50;96959.53;;;23.61;50.69
78073;BME280;67281;48.770;11.440;2023-06-10T07:38:17;96965.72;;;23.61;51.01
78073;BME280;67281;48.770;11.440;2023-06-10T07:40:45;96962.03;;;23.62;50.43
78073;BME280;67281;48.770;11.440;2023-06-10T07:43:12;96958.31;;;23.63;50.29
78073;BME280;67281;48.770;11.440;2023-06-10T07:45:42;96957.09;;;23.66;51.09
78073;BME280;67281;48.770;11.440;2023-06-10T07:48:09;96968.06;;;23.71;51.04
78073;BME280;67281;48.770;11.440;2023-06-10T07:50:36;96964.16;;;23.73;50.46
78073;BME280;67281;48.770;11.440;2023-06-10T07:53:03;96968.28;;;23.76;50.45
78073;BME280;67281;48.770;11.440;2023-06-10T07:55:30;96971.56;;;23.78;50.09
78073;BME280;67281;48.770;11.440;2023-06-10T07:57:57;96964.34;;;23.78;50.19
78073;BME280;67281;48.770;11.440;2023-06-10T08:00:24;96974.88;;;23.80;50.03
78073;BME280;67281;48.770;11.440;2023-06-10T08:02:51;96970.97;;;23.82;50.48
78073;BME280;67281;48.770;11.440;2023-06-10T08:05:18;96967.06;;;23.85;50.48
78073;BME280;67281;48.770;11.440;2023-06-10T08:07:45;96970.97;;;23.82;50.69
78073;BME280;67281;48.770;11.440;2023-06-10T08:10:12;96975.50;;;23.82;50.44
78073;BME280;67281;48.770;11.440;2023-06-10T08:12:39;96965.00;;;23.80;50.10
78073;BME280;67281;48.770;11.440;2023-06-10T08:15:06;96964.78;;;23.82;49.79
78073;BME280;67281;48.770;11.440;2023-06-10T08:17:34;96966.00;;;23.79;49.88
78073;BME280;67281;48.770;11.440;2023-06-10T08:20:01;96960.47;;;23.81;49.84
78073;BME280;67281;48.770;11.440;2023-06-10T08:22:28;96967.06;;;23.85;50.32
78073;BME280;67281;48.770;11.440;2023-06-10T08:24:55;96966.88;;;23.86;49.64
78073;BME280;67281;48.770;11.440;2023-06-10T08:27:22;96975.34;;;23.90;49.66
78073;BME280;67281;48.770;11.440;2023-06-10T08:29:50;96972.03;;;23.88;49.35
78073;BME280;67281;48.770;11.440;2023-06-10T08:32:17;96963.19;;;23.87;48.92
78073;BME280;67281;48.770;11.440;2023-06-10T08:34:44;96968.34;;;23.89;49.24
78073;BME280;67281;48.770;11.440;2023-06-10T08:37:10;96967.94;;;23.92;49.37
78073;BME280;67281;48.770;11.440;2023-06-10T08:39:37;96970.03;;;23.97;49.10
78073;BME280;67281;48.770;11.440;2023-06-10T08:44:54;96974.16;;;23.99;49.18
78073;BME280;67281;48.770;11.440;2023-06-10T08:47:29;96966.31;;;23.98;48.84
78073;BME280;67281;48.770;11.440;2023-06-10T08:50:02;96972.06;;;23.95;48.84
78073;BME280;67281;48.770;11.440;2023-06-10T08:52:37;96969.19;;;23.96;48.75
78073;BME280;67281;48.770;11.440;2023-06-10T08:55:14;96968.16;;;23.97;48.43
78073;BME280;67281;48.770;11.440;2023-06-10T08:57:42;96968.59;;;24.01;48.00
78073;BME280;67281;48.770;11.440;2023-06-10T09:00:12;96974.78;;;24.01;48.35
78073;BME280;67281;48.770;11.440;2023-06-10T09:02:39;96956.88;;;24.02;48.49
78073;BME280;67281;48.770;11.440;2023-06-10T09:05:07;96962.66;;;24.05;47.82
78073;BME280;67281;48.770;11.440;2023-06-10T09:07:35;96961.63;;;24.06;47.94
78073;BME280;67281;48.770;11.440;2023-06-10T09:10:04;96954.22;;;24.08;47.80
78073;BME280;67281;48.770;11.440;2023-06-10T09:12:34;96969.25;;;24.09;47.68
78073;BME280;67281;48.770;11.440;2023-06-10T09:15:02;96969.06;;;24.11;47.47
78073;BME280;67281;48.770;11.440;2023-06-10T09:17:29;96959.78;;;24.07;47.84
78073;BME280;67281;48.770;11.440;2023-06-10T09:19:56;96956.91;;;24.08;47.93
78073;BME280;67281;48.770;11.440;2023-06-10T09:22:26;96960.81;;;24.12;47.77
78073;BME280;67281;48.770;11.440;2023-06-10T09:27:31;96959.84;;;24.20;47.70
78073;BME280;67281;48.770;11.440;2023-06-10T09:29:59;96958.59;;;24.22;48.13
78073;BME280;67281;48.770;11.440;2023-06-10T09:32:26;96961.91;;;24.24;48.40
78073;BME280;67281;48.770;11.440;2023-06-10T09:34:53;96964.22;;;24.28;47.91
78073;BME280;67281;48.770;11.440;2023-06-10T09:37:21;96973.91;;;24.29;48.35
78073;BME280;67281;48.770;11.440;2023-06-10T09:40:05;96968.75;;;24.27;48.21
78073;BME280;67281;48.770;11.440;2023-06-10T09:42:33;96963.59;;;24.26;48.28
78073;BME280;67281;48.770;11.440;2023-06-10T09:45:03;96967.72;;;24.28;47.84
78073;BME280;67281;48.770;11.440;2023-06-10T09:47:30;96957.25;;;24.33;48.72
78073;BME280;67281;48.770;11.440;2023-06-10T09:49:57;96969.81;;;24.39;48.56
78073;BME280;67281;48.770;11.440;2023-06-10T09:52:26;96962.63;;;24.40;47.75
78073;BME280;67281;48.770;11.440;2023-06-10T09:54:58;96966.53;;;24.37;48.33
78073;BME280;67281;48.770;11.440;2023-06-10T09:57:30;96974.75;;;24.36;47.91
78073;BME280;67281;48.770;11.440;2023-06-10T09:59:59;96975.19;;;24.39;48.44
78073;BME280;67281;48.770;11.440;2023-06-10T10:02:26;96976.63;;;24.35;48.12
78073;BME280;67281;48.770;11.440;2023-06-10T10:04:53;96973.09;;;24.35;47.74
78073;BME280;67281;48.770;11.440;2023-06-10T10:07:28;96980.13;;;24.36;47.71
78073;BME280;67281;48.770;11.440;2023-06-10T10:09:55;96984.66;;;24.35;48.06
78073;BME280;67281;48.770;11.440;2023-06-10T10:12:23;96979.28;;;24.35;48.42
78073;BME280;67281;48.770;11.440;2023-06-10T10:14:50;96979.50;;;24.34;48.69
78073;BME280;67281;48.770;11.440;2023-06-10T10:17:18;96979.09;;;24.37;48.07
78073;BME280;67281;48.770;11.440;2023-06-10T10:19:50;96981.38;;;24.40;48.79
78073;BME280;67281;48.770;11.440;2023-06-10T10:22:20;96978.50;;;24.48;48.08
78073;BME280;67281;48.770;11.440;2023-06-10T10:24:50;96981.81;;;24.50;48.25
78073;BME280;67281;48.770;11.440;2023-06-10T10:27:21;96982.41;;;24.52;47.55
78073;BME280;67281;48.770;11.440;2023-06-10T10:29:54;96984.50;;;24.50;47.73
78073;BME280;67281;48.770;11.440;2023-06-10T10:32:32;96981.38;;;24.46;47.45
78073;BME280;67281;48.770;11.440;2023-06-10T10:35:07;96985.53;;;24.49;47.82
78073;BME280;67281;48.770;11.440;2023-06-10T10:37:35;96988.59;;;24.46;47.54
78073;BME280;67281;48.770;11.440;2023-06-10T10:40:03;96989.44;;;24.46;47.76
78073;BME280;67281;48.770;11.440;2023-06-10T10:42:31;96981.38;;;24.46;47.50
78073;BME280;67281;48.770;11.440;2023-06-10T10:44:58;96985.09;;;24.45;48.58
78073;BME280;67281;48.770;11.440;2023-06-10T10:47:27;96979.75;;;24.45;47.76
78073;BME280;67281;48.770;11.440;2023-06-10T10:49:57;96981.59;;;24.45;48.22
78073;BME280;67281;48.770;11.440;2023-06-10T10:52:46;96979.72;;;24.52;48.16
78073;BME280;67281;48.770;11.440;2023-06-10T10:55:14;96984.69;;;24.48;47.98
78073;BME280;67281;48.770;11.440;2023-06-10T10:57:41;96988.41;;;24.47;48.47
78073;BME280;67281;48.770;11.440;2023-06-10T11:00:09;96989.22;;;24.48;48.35
78073;BME280;67281;48.770;11.440;2023-06-10T11:05:07;96983.03;;;24.47;48.51
78073;BME280;67281;48.770;11.440;2023-06-10T11:07:35;96989.84;;;24.50;47.86
78073;BME280;67281;48.770;11.440;2023-06-10T11:10:07;96991.06;;;24.54;48.32
78073;BME280;67281;48.770;11.440;2023-06-10T11:15:12;96982.41;;;24.52;48.14
78073;BME280;67281;48.770;11.440;2023-06-10T11:18:06;96977.47;;;24.55;47.76
78073;BME280;67281;48.770;11.440;2023-06-10T11:29:04;96975.25;;;24.72;46.83
78073;BME280;67281;48.770;11.440;2023-06-10T11:31:37;96977.31;;;24.70;47.54
78073;BME280;67281;48.770;11.440;2023-06-10T11:34:06;96978.34;;;24.69;47.68
78073;BME280;67281;48.770;11.440;2023-06-10T11:36:40;96982.88;;;24.69;47.36
78073;BME280;67281;48.770;11.440;2023-06-10T11:39:09;96977.50;;;24.69;47.74
78073;BME280;67281;48.770;11.440;2023-06-10T11:41:38;96974.63;;;24.70;47.43
78073;BME280;67281;48.770;11.440;2023-06-10T11:44:10;96980.59;;;24.66;47.20
78073;BME280;67281;48.770;11.440;2023-06-10T11:46:38;96980.78;;;24.64;47.20
78073;BME280;67281;48.770;11.440;2023-06-10T11:49:06;96968.84;;;24.67;47.71
78073;BME280;67281;48.770;11.440;2023-06-10T11:51:35;96966.78;;;24.69;47.13
78073;BME280;67281;48.770;11.440;2023-06-10T11:54:03;96971.75;;;24.72;46.91
78073;BME280;67281;48.770;11.440;2023-06-10T11:56:31;96975.25;;;24.72;47.08
78073;BME280;67281;48.770;11.440;2023-06-10T11:59:01;96973.81;;;24.76;47.05
78073;BME280;67281;48.770;11.440;2023-06-10T12:01:34;96974.03;;;24.81;47.50
78073;BME280;67281;48.770;11.440;2023-06-10T12:04:07;96964.34;;;24.80;46.67
78073;BME280;67281;48.770;11.440;2023-06-10T12:06:53;96963.31;;;24.81;46.52
78073;BME280;67281;48.770;11.440;2023-06-10T12:09:27;96963.72;;;24.85;46.66
78073;BME280;67281;48.770;11.440;2023-06-10T12:14:50;96965.41;;;24.93;46.39
78073;BME280;67281;48.770;11.440;2023-06-10T12:20:00;96961.06;;;24.92;46.46
78073;BME280;67281;48.770;11.440;2023-06-10T12:22:36;96956.72;;;24.90;46.33
78073;BME280;67281;48.770;11.440;2023-06-10T12:25:04;96948.69;;;24.90;46.91
78073;BME280;67281;48.770;11.440;2023-06-10T12:27:34;96954.03;;;24.90;46.44
78073;BME280;67281;48.770;11.440;2023-06-10T12:30:04;96952.00;;;24.93;46.63
78073;BME280;67281;48.770;11.440;2023-06-10T12:32:50;96958.38;;;24.92;46.32
78073;BME280;67281;48.770;11.440;2023-06-10T12:35:19;96960.22;;;24.91;46.84
78073;BME280;67281;48.770;11.440;2023-06-10T12:38:04;96959.63;;;24.96;47.14
78073;BME280;67281;48.770;11.440;2023-06-10T12:40:34;96951.41;;;25.04;46.96
78073;BME280;67281;48.770;11.440;2023-06-10T12:43:03;96950.59;;;25.03;47.21
78073;BME280;67281;48.770;11.440;2023-06-10T12:45:37;96948.53;;;25.12;46.18
78073;BME280;67281;48.770;11.440;2023-06-10T12:48:11;96956.56;;;25.12;46.52
78073;BME280;67281;48.770;11.440;2023-06-10T12:50:41;96953.47;;;25.08;46.33
78073;BME280;67281;48.770;11.440;2023-06-10T12:53:09;96949.34;;;25.06;46.20
78073;BME280;67281;48.770;11.440;2023-06-10T12:55:38;96942.75;;;25.08;46.47
78073;BME280;67281;48.770;11.440;2023-06-10T12:58:05;96944.41;;;25.09;46.28
78073;BME280;67281;48.770;11.440;2023-06-10T13:00:31;96943.56;;;25.09;46.38
78073;BME280;67281;48.770;11.440;2023-06-10T13:03:02;96950.59;;;25.10;46.10
78073;BME280;67281;48.770;11.440;2023-06-10T13:05:29;96933.47;;;25.11;45.86
78073;BME280;67281;48.770;11.440;2023-06-10T13:07:57;96944.00;;;25.12;45.75
78073;BME280;67281;48.770;11.440;2023-06-10T13:10:24;96940.06;;;25.15;46.67
78073;BME280;67281;48.770;11.440;2023-06-10T13:12:52;96939.44;;;25.19;46.10
78073;BME280;67281;48.770;11.440;2023-06-10T13:15:19;96929.97;;;25.24;46.19
78073;BME280;67281;48.770;11.440;2023-06-10T13:17:46;96925.78;;;25.28;45.89
78073;BME280;67281;48.770;11.440;2023-06-10T13:20:17;96934.88;;;25.33;45.83
78073;BME280;67281;48.770;11.440;2023-06-10T13:22:44;96929.31;;;25.35;45.77